Time;durP1;ratioP1;P1;durP2;ratioP2;P2;SDS_P1;SDS_P2;PMS_P1;PMS_P2;Temp;Humidity;BMP_temperature;BMP_pressure;BME280_temperature;BME280_humidity;BME280_pressure;Samples;Min_cycle;Max_cycle;Signal;HPM_P1;HPM_P2
2022/11/14 00:00:37;;;;;;;11.25;5.78;;;26.90;99.90;;;;;;5056621;28;20071;-68
2022/11/14 00:03:06;;;;;;;16.48;10.10;;;26.90;99.90;;;;;;5056775;28;20029;-68
2022/11/14 00:05:33;;;;;;;39.70;22.65;;;26.90;99.90;;;;;;5056445;28;20021;-68
2022/11/14 00:07:59;;;;;;;33.08;15.13;;;27.00;99.90;;;;;;5056556;28;20479;-69
2022/11/14 00:10:26;;;;;;;12.20;7.60;;;27.00;99.90;;;;;;5056482;28;20496;-68
2022/11/14 00:12:52;;;;;;;24.27;12.45;;;27.00;99.90;;;;;;5056178;28;20028;-68
2022/11/14 00:15:19;;;;;;;31.17;13.35;;;27.00;99.90;;;;;;5056098;28;20052;-68
2022/11/14 00:17:45;;;;;;;21.13;12.30;;;27.10;99.90;;;;;;5055940;28;20553;-69
2022/11/14 00:20:12;;;;;;;14.60;5.90;;;27.20;99.90;;;;;;5056737;28;20052;-69
2022/11/14 00:22:39;;;;;;;21.48;5.80;;;27.20;99.90;;;;;;5056018;28;20100;-69
2022/11/14 00:25:06;;;;;;;19.58;7.88;;;27.30;99.90;;;;;;5056175;28;20046;-66
2022/11/14 00:27:33;;;;;;;14.38;4.60;;;27.30;99.90;;;;;;5056162;28;20045;-68
2022/11/14 00:29:59;;;;;;;13.23;4.13;;;27.40;99.90;;;;;;5055878;28;20031;-68
2022/11/14 00:32:26;;;;;;;14.55;4.32;;;27.40;99.90;;;;;;5055917;28;20021;-68
2022/11/14 00:34:52;;;;;;;16.10;4.75;;;27.40;99.90;;;;;;5056095;28;20025;-68
2022/11/14 00:37:19;;;;;;;20.60;5.32;;;27.40;99.90;;;;;;5056118;28;20049;-68
2022/11/14 00:39:45;;;;;;;162.60;110.47;;;27.50;99.90;;;;;;5056139;28;20017;-68
2022/11/14 00:42:12;;;;;;;24.17;11.93;;;27.50;99.90;;;;;;5055974;28;20025;-68
2022/11/14 00:44:38;;;;;;;16.77;6.82;;;27.50;99.90;;;;;;5055767;28;20032;-68
2022/11/14 00:47:05;;;;;;;22.58;9.27;;;27.50;99.90;;;;;;5055810;28;20478;-68
2022/11/14 00:49:31;;;;;;;11.60;5.10;;;27.60;99.90;;;;;;5055986;28;20021;-68
2022/11/14 00:51:58;;;;;;;15.57;8.65;;;27.60;99.90;;;;;;5055303;28;20025;-68
2022/11/14 00:54:25;;;;;;;28.42;11.55;;;27.50;99.90;;;;;;5055518;28;20021;-68
2022/11/14 00:56:52;;;;;;;29.42;13.57;;;27.60;99.90;;;;;;5055568;28;20483;-68
2022/11/14 00:59:18;;;;;;;21.23;10.30;;;27.60;99.90;;;;;;5055416;28;20381;-68
2022/11/14 01:01:45;;;;;;;18.50;7.75;;;27.60;99.90;;;;;;5055287;28;20025;-67
2022/11/14 01:04:11;;;;;;;27.05;9.38;;;27.70;99.90;;;;;;5056166;28;20143;-68
2022/11/14 01:06:38;;;;;;;18.67;10.05;;;27.80;99.90;;;;;;5056209;28;20025;-67
2022/11/14 01:09:04;;;;;;;12.55;6.35;;;27.90;99.90;;;;;;5056392;28;20024;-66
2022/11/14 01:11:31;;;;;;;16.60;6.63;;;28.00;99.90;;;;;;5056452;28;20021;-67
2022/11/14 01:13:57;;;;;;;11.30;3.47;;;28.00;99.90;;;;;;5055748;28;20370;-66
2022/11/14 01:16:24;;;;;;;10.52;4.45;;;28.00;99.90;;;;;;5056136;28;20032;-66
2022/11/14 01:18:50;;;;;;;12.50;6.63;;;28.00;99.90;;;;;;5056235;28;20078;-66
2022/11/14 01:21:17;;;;;;;6.38;3.55;;;28.10;99.90;;;;;;5055684;28;20028;-66
2022/11/14 01:23:43;;;;;;;84.45;55.70;;;28.20;99.90;;;;;;5055843;28;20025;-67
2022/11/14 01:26:12;;;;;;;20.02;13.43;;;28.20;99.90;;;;;;5056203;28;20448;-67
2022/11/14 01:28:40;;;;;;;8.68;3.17;;;28.30;99.90;;;;;;5055823;28;20029;-66
2022/11/14 01:31:11;;;;;;;23.67;14.35;;;28.40;99.90;;;;;;5056190;28;20485;-66
2022/11/14 01:33:38;;;;;;;7.75;3.22;;;28.40;99.90;;;;;;5054872;28;20036;-67
2022/11/14 01:36:05;;;;;;;7.30;2.53;;;28.40;99.90;;;;;;5054231;28;20120;-67
2022/11/14 01:38:32;;;;;;;5.53;2.72;;;28.50;99.90;;;;;;5054835;28;20021;-67
2022/11/14 01:40:59;;;;;;;12.15;5.97;;;28.50;99.90;;;;;;5054832;28;20028;-67
2022/11/14 01:43:29;;;;;;;7.57;3.80;;;28.50;99.90;;;;;;5054461;28;20021;-67
2022/11/14 01:46:02;;;;;;;17.92;4.25;;;28.50;99.90;;;;;;5054312;28;20021;-67
2022/11/14 01:48:37;;;;;;;16.70;7.32;;;28.60;99.90;;;;;;5054458;28;20486;-67
2022/11/14 01:51:20;;;;;;;11.20;5.47;;;28.60;99.90;;;;;;5054064;28;20104;-66
2022/11/14 01:53:50;;;;;;;17.70;6.07;;;28.70;99.90;;;;;;5054310;28;20028;-67
2022/11/14 01:56:20;;;;;;;8.70;4.82;;;28.80;99.90;;;;;;5054103;28;20052;-67
2022/11/14 01:58:53;;;;;;;19.75;8.75;;;28.80;99.90;;;;;;5054242;28;20025;-67
2022/11/14 02:01:19;;;;;;;15.18;6.40;;;28.90;99.90;;;;;;5054109;28;20025;-66
2022/11/14 02:03:49;;;;;;;5.60;3.22;;;29.00;99.90;;;;;;5054099;28;20047;-66
2022/11/14 02:06:18;;;;;;;9.55;3.95;;;29.00;99.90;;;;;;5054066;28;20474;-68
2022/11/14 02:08:45;;;;;;;11.02;3.47;;;29.10;99.90;;;;;;5053977;28;20024;-65
2022/11/14 02:11:12;;;;;;;35.70;22.83;;;29.20;99.90;;;;;;5053879;28;20033;-65
2022/11/14 02:13:38;;;;;;;17.73;5.85;;;29.30;99.90;;;;;;5053044;28;20064;-66
2022/11/14 02:16:06;;;;;;;112.22;70.68;;;29.30;99.90;;;;;;5053656;28;20390;-66
2022/11/14 02:18:33;;;;;;;61.45;44.22;;;29.40;99.90;;;;;;5053931;28;20377;-67
2022/11/14 02:21:00;;;;;;;5.13;2.67;;;29.50;99.90;;;;;;5054052;28;20029;-66
2022/11/14 02:23:30;;;;;;;6.80;2.60;;;29.60;99.90;;;;;;5053836;28;20025;-66
2022/11/14 02:25:57;;;;;;;8.55;2.60;;;29.50;99.90;;;;;;5053885;28;20103;-65
2022/11/14 02:28:25;;;;;;;2.97;2.25;;;29.50;99.90;;;;;;5053776;28;20049;-66
2022/11/14 02:30:51;;;;;;;13.90;3.13;;;29.60;99.90;;;;;;5053595;28;20048;-67
2022/11/14 02:33:17;;;;;;;10.93;2.97;;;29.70;99.90;;;;;;5053565;28;20029;-67
2022/11/14 02:35:44;;;;;;;7.22;3.53;;;29.70;99.90;;;;;;5053246;28;20040;-67
2022/11/14 02:38:11;;;;;;;6.40;2.28;;;29.70;99.90;;;;;;5053348;28;20052;-67
2022/11/14 02:40:37;;;;;;;5.78;2.47;;;29.90;99.90;;;;;;5053673;28;20017;-67
2022/11/14 02:43:04;;;;;;;5.85;2.95;;;30.10;99.90;;;;;;5053497;28;20474;-66
2022/11/14 02:45:30;;;;;;;4.85;2.10;;;30.10;99.90;;;;;;5053390;28;20052;-66
2022/11/14 02:47:57;;;;;;;3.88;2.08;;;30.00;99.90;;;;;;5053672;28;20037;-67
2022/11/14 02:50:23;;;;;;;6.75;2.15;;;30.10;99.90;;;;;;5053354;28;20079;-67
2022/11/14 02:52:50;;;;;;;8.15;2.45;;;30.20;99.90;;;;;;5053126;28;20037;-67
2022/11/14 02:55:17;;;;;;;3.78;2.03;;;30.20;99.90;;;;;;5053250;28;20025;-67
2022/11/14 02:57:43;;;;;;;7.78;2.67;;;30.30;99.90;;;;;;5053287;28;20017;-66
2022/11/14 03:00:10;;;;;;;10.27;3.65;;;30.50;99.90;;;;;;5053197;28;20024;-67
2022/11/14 03:02:37;;;;;;;7.70;3.10;;;30.60;99.90;;;;;;5053057;28;20020;-66
2022/11/14 03:05:04;;;;;;;7.07;2.75;;;30.60;99.90;;;;;;5046846;28;20028;-66
2022/11/14 03:07:30;;;;;;;23.58;14.85;;;30.80;99.90;;;;;;5038485;28;20386;-66
2022/11/14 03:09:57;;;;;;;7.72;3.58;;;30.90;99.90;;;;;;5033489;28;20467;-66
2022/11/14 03:12:23;;;;;;;27.33;16.38;;;30.90;99.90;;;;;;5033355;28;20028;-66
2022/11/14 03:14:50;;;;;;;10.60;3.53;;;30.90;99.90;;;;;;5033472;28;20036;-67
2022/11/14 03:17:16;;;;;;;13.48;3.35;;;30.90;99.90;;;;;;5033537;28;20382;-67
2022/11/14 03:19:43;;;;;;;6.65;3.08;;;30.90;99.90;;;;;;5033387;28;20475;-66
2022/11/14 03:22:09;;;;;;;8.23;2.75;;;31.00;99.90;;;;;;5033397;28;20423;-66
2022/11/14 03:24:35;;;;;;;8.82;2.92;;;31.00;99.90;;;;;;5033981;28;20026;-67
2022/11/14 03:27:02;;;;;;;86.63;57.88;;;30.90;99.90;;;;;;5037747;28;20021;-66
2022/11/14 03:29:29;;;;;;;48.45;32.22;;;30.90;99.90;;;;;;5037290;28;20025;-66
2022/11/14 03:31:56;;;;;;;12.73;4.93;;;31.00;99.90;;;;;;5037575;28;20017;-69
2022/11/14 03:34:22;;;;;;;3.05;2.70;;;31.10;99.90;;;;;;5037868;28;20070;-67
2022/11/14 03:36:49;;;;;;;6.60;3.20;;;31.10;99.90;;;;;;5037080;28;20049;-66
2022/11/14 03:39:15;;;;;;;7.18;2.72;;;31.20;99.90;;;;;;5037262;28;20029;-66
2022/11/14 03:41:42;;;;;;;9.05;3.33;;;31.20;99.90;;;;;;5037019;28;20021;-67
2022/11/14 03:44:09;;;;;;;6.60;2.40;;;31.30;99.90;;;;;;5037049;28;20021;-67
2022/11/14 03:46:35;;;;;;;11.18;4.72;;;31.30;99.90;;;;;;5037509;28;20378;-67
2022/11/14 03:49:02;;;;;;;4.75;2.45;;;31.40;99.90;;;;;;5047516;28;20021;-66
2022/11/14 03:51:28;;;;;;;4.65;2.40;;;31.60;99.90;;;;;;5037129;28;20087;-66
2022/11/14 03:53:55;;;;;;;18.30;7.60;;;31.50;99.90;;;;;;5036390;28;20022;-65
2022/11/14 03:56:22;;;;;;;78.20;28.60;;;31.50;99.90;;;;;;5036555;28;20555;-65
2022/11/14 03:58:48;;;;;;;9.63;2.72;;;31.60;99.90;;;;;;5036836;28;20013;-63
2022/11/14 04:01:15;;;;;;;4.38;2.08;;;31.60;99.90;;;;;;5036731;28;20096;-65
2022/11/14 04:03:41;;;;;;;5.18;2.20;;;31.70;99.90;;;;;;5036364;28;20371;-66
2022/11/14 04:06:08;;;;;;;6.32;2.70;;;31.70;99.90;;;;;;5036469;28;20474;-64
2022/11/14 04:08:34;;;;;;;5.60;1.95;;;31.60;99.90;;;;;;5036444;28;20022;-66
2022/11/14 04:11:01;;;;;;;11.75;4.20;;;31.50;99.90;;;;;;5036186;28;20057;-65
2022/11/14 04:13:27;;;;;;;7.15;2.85;;;31.50;99.90;;;;;;5036337;28;20067;-65
2022/11/14 04:15:58;;;;;;;9.43;3.97;;;31.70;99.90;;;;;;5036593;28;20022;-67
2022/11/14 04:18:25;;;;;;;7.72;4.50;;;31.80;99.90;;;;;;5036237;28;20022;-68
2022/11/14 04:20:52;;;;;;;5.32;2.53;;;31.90;99.90;;;;;;5037206;28;20080;-67
2022/11/14 04:23:18;;;;;;;4.95;1.55;;;32.10;99.90;;;;;;5046292;28;20057;-68
2022/11/14 04:25:46;;;;;;;5.40;3.53;;;32.00;99.90;;;;;;5035997;28;20075;-68
2022/11/14 04:28:13;;;;;;;8.63;3.95;;;32.10;99.90;;;;;;5036052;28;20509;-67
2022/11/14 04:30:39;;;;;;;6.10;3.67;;;32.20;99.90;;;;;;5036058;28;20029;-68
2022/11/14 04:33:06;;;;;;;6.90;4.00;;;32.20;99.90;;;;;;5035842;28;20470;-67
2022/11/14 04:35:32;;;;;;;5.35;2.80;;;32.40;99.90;;;;;;5035841;28;20046;-67
2022/11/14 04:37:59;;;;;;;8.57;3.08;;;32.30;99.90;;;;;;5035302;28;20378;-65
2022/11/14 04:40:25;;;;;;;6.18;2.50;;;32.20;99.90;;;;;;5045859;28;20025;-65
2022/11/14 04:42:52;;;;;;;10.63;2.28;;;32.40;99.90;;;;;;5044571;28;20013;-65
2022/11/14 04:45:18;;;;;;;6.55;3.40;;;32.30;99.90;;;;;;5046945;28;20045;-65
2022/11/14 04:47:45;;;;;;;17.75;10.23;;;32.20;99.90;;;;;;5045840;28;20028;-66
2022/11/14 04:50:11;;;;;;;13.07;5.70;;;32.30;99.90;;;;;;5041563;28;20524;-65
2022/11/14 04:52:38;;;;;;;7.43;3.60;;;32.40;99.90;;;;;;5035595;28;20021;-65
2022/11/14 04:55:05;;;;;;;9.93;3.88;;;32.40;99.90;;;;;;5035476;28;20095;-66
2022/11/14 04:57:31;;;;;;;5.78;2.40;;;32.40;99.90;;;;;;5035365;28;20026;-68
2022/11/14 04:59:58;;;;;;;6.53;3.03;;;32.60;99.90;;;;;;5035625;28;20467;-69
2022/11/14 05:02:24;;;;;;;4.47;2.60;;;32.70;99.90;;;;;;5035513;28;20411;-69
2022/11/14 05:04:51;;;;;;;8.52;3.70;;;32.70;99.50;;;;;;5035497;28;20044;-70
2022/11/14 05:07:17;;;;;;;2.35;1.80;;;32.70;99.90;;;;;;5035263;28;20079;-70
2022/11/14 05:09:44;;;;;;;11.10;5.32;;;32.70;99.40;;;;;;5035086;28;20032;-69
2022/11/14 05:12:10;;;;;;;25.60;15.35;;;32.70;99.90;;;;;;5035879;28;20033;-67
2022/11/14 05:14:37;;;;;;;6.47;3.55;;;32.80;99.90;;;;;;5035526;28;20032;-67
2022/11/14 05:17:03;;;;;;;14.90;7.35;;;32.90;99.90;;;;;;5035293;28;20025;-66
2022/11/14 05:19:30;;;;;;;11.02;4.63;;;32.90;99.50;;;;;;5035233;28;20465;-67
2022/11/14 05:21:56;;;;;;;13.80;4.53;;;32.90;99.60;;;;;;5035325;28;20083;-69
2022/11/14 05:24:23;;;;;;;8.65;3.25;;;32.80;99.50;;;;;;5035151;28;20032;-65
2022/11/14 05:26:50;;;;;;;6.57;2.88;;;32.90;99.40;;;;;;5034752;28;20473;-65
2022/11/14 05:29:16;;;;;;;5.18;2.60;;;32.80;99.70;;;;;;5037518;28;20045;-65
2022/11/14 05:31:43;;;;;;;8.50;3.03;;;32.70;99.90;;;;;;5044218;28;20036;-65
2022/11/14 05:34:09;;;;;;;4.57;2.35;;;32.80;99.90;;;;;;5043789;28;20100;-65
2022/11/14 05:36:36;;;;;;;5.90;3.08;;;32.70;99.90;;;;;;5042523;28;20038;-66
2022/11/14 05:39:02;;;;;;;7.63;2.75;;;32.70;99.90;;;;;;5044526;28;20019;-65
2022/11/14 05:41:29;;;;;;;5.78;2.50;;;32.80;99.90;;;;;;5041802;28;20030;-65
2022/11/14 05:43:55;;;;;;;9.98;4.28;;;32.90;99.00;;;;;;5043831;28;20025;-65
2022/11/14 05:46:22;;;;;;;4.90;2.50;;;32.90;99.90;;;;;;5043140;28;20021;-64
2022/11/14 05:48:48;;;;;;;3.80;1.83;;;33.00;99.50;;;;;;5037110;28;20374;-64
2022/11/14 05:51:14;;;;;;;6.97;2.30;;;33.00;98.60;;;;;;5037639;28;20102;-68
2022/11/14 05:53:41;;;;;;;5.93;2.00;;;32.90;98.70;;;;;;5038444;28;20114;-65
2022/11/14 05:56:11;;;;;;;8.77;2.20;;;32.90;99.30;;;;;;5040117;28;20178;-65
2022/11/14 05:58:38;;;;;;;5.35;2.50;;;32.90;99.10;;;;;;5044042;28;20591;-66
2022/11/14 06:01:08;;;;;;;4.10;2.40;;;32.90;99.80;;;;;;5043744;28;20497;-65
2022/11/14 06:03:39;;;;;;;6.75;2.67;;;33.10;99.40;;;;;;5041388;28;20410;-65
2022/11/14 06:06:08;;;;;;;5.00;2.33;;;33.10;99.20;;;;;;5043280;28;20021;-65
2022/11/14 06:08:35;;;;;;;8.10;2.90;;;33.10;99.00;;;;;;5044602;28;20133;-66
2022/11/14 06:11:04;;;;;;;6.93;3.47;;;33.20;98.70;;;;;;5042297;28;20025;-65
2022/11/14 06:13:32;;;;;;;10.05;3.00;;;33.20;99.00;;;;;;5042419;28;20021;-66
2022/11/14 06:16:00;;;;;;;9.13;2.83;;;33.30;97.70;;;;;;5043775;28;20351;-63
2022/11/14 06:18:29;;;;;;;8.35;2.83;;;33.40;98.10;;;;;;5041131;28;20025;-65
2022/11/14 06:20:59;;;;;;;7.15;3.05;;;33.50;98.20;;;;;;5036260;28;20017;-67
2022/11/14 06:23:26;;;;;;;5.50;3.42;;;33.60;97.90;;;;;;5036160;28;20029;-65
2022/11/14 06:25:59;;;;;;;7.40;3.53;;;33.70;98.00;;;;;;5043487;28;20036;-66
2022/11/14 06:28:26;;;;;;;11.98;7.15;;;33.80;97.70;;;;;;5042670;28;20029;-65
2022/11/14 06:31:00;;;;;;;7.07;3.53;;;33.80;97.70;;;;;;5041315;28;20029;-66
2022/11/14 06:33:32;;;;;;;7.32;3.03;;;33.70;98.80;;;;;;5042253;28;20016;-66
2022/11/14 06:36:00;;;;;;;7.03;3.45;;;33.80;98.00;;;;;;5043261;28;20039;-65
2022/11/14 06:38:29;;;;;;;7.47;3.83;;;33.80;97.10;;;;;;5043072;28;20028;-66
2022/11/14 06:41:18;;;;;;;8.25;4.05;;;33.80;98.30;;;;;;5041253;28;20029;-66
2022/11/14 06:43:47;;;;;;;5.63;3.15;;;33.80;98.20;;;;;;5035990;28;20032;-66
2022/11/14 06:46:16;;;;;;;8.20;3.30;;;33.60;97.10;;;;;;5041465;28;20371;-65
2022/11/14 06:48:43;;;;;;;8.20;3.45;;;33.60;97.90;;;;;;5042577;28;20021;-65
2022/11/14 06:51:11;;;;;;;6.95;3.15;;;33.80;96.90;;;;;;5042903;28;20413;-65
2022/11/14 06:53:39;;;;;;;9.50;3.25;;;33.70;98.00;;;;;;5041714;28;20024;-66
2022/11/14 06:56:08;;;;;;;5.05;2.97;;;33.70;97.40;;;;;;5042032;28;20146;-66
2022/11/14 06:58:38;;;;;;;6.53;3.25;;;33.60;96.40;;;;;;5043166;28;20020;-65
2022/11/14 07:01:25;;;;;;;6.78;2.95;;;33.60;97.90;;;;;;5041680;28;20025;-65
2022/11/14 07:03:52;;;;;;;6.90;3.00;;;33.80;96.60;;;;;;5043151;28;20018;-66
2022/11/14 07:06:23;;;;;;;6.15;3.25;;;33.80;97.60;;;;;;5041001;28;20032;-65
2022/11/14 07:08:50;;;;;;;13.50;5.27;;;33.80;97.20;;;;;;5041356;28;20377;-66
2022/11/14 07:11:21;;;;;;;8.90;3.92;;;33.90;97.00;;;;;;5042908;28;20370;-65
2022/11/14 07:13:53;;;;;;;6.20;3.20;;;34.10;96.90;;;;;;5037978;28;20187;-65
2022/11/14 07:16:22;;;;;;;6.75;3.40;;;34.00;97.80;;;;;;5033390;28;20032;-64
2022/11/14 07:18:49;;;;;;;8.70;3.05;;;34.10;96.70;;;;;;5033346;28;20029;-66
2022/11/14 07:21:15;;;;;;;9.60;4.40;;;34.10;96.40;;;;;;5033042;28;20466;-65
2022/11/14 07:23:42;;;;;;;6.32;3.55;;;34.10;97.10;;;;;;5033122;28;20104;-66
2022/11/14 07:26:10;;;;;;;6.15;3.38;;;34.20;96.80;;;;;;5033068;28;20033;-65
2022/11/14 07:28:39;;;;;;;7.85;3.28;;;34.10;97.10;;;;;;5032967;28;20040;-64
2022/11/14 07:31:08;;;;;;;9.32;3.83;;;34.00;96.00;;;;;;5033156;28;20544;-65
2022/11/14 07:33:35;;;;;;;9.27;3.28;;;34.10;96.70;;;;;;5033150;28;20516;-64
2022/11/14 07:36:02;;;;;;;45.92;11.70;;;33.80;95.50;;;;;;5032683;28;20107;-65
2022/11/14 07:38:30;;;;;;;8.45;3.00;;;33.80;96.80;;;;;;5032976;28;20505;-66
2022/11/14 07:40:58;;;;;;;8.55;3.55;;;33.90;96.60;;;;;;5032991;28;20033;-65
2022/11/14 07:43:25;;;;;;;14.32;2.97;;;34.00;96.80;;;;;;5032925;28;20103;-65
2022/11/14 07:45:51;;;;;;;7.13;3.90;;;34.20;96.90;;;;;;5037677;28;20033;-66
2022/11/14 07:48:20;;;;;;;5.35;3.30;;;34.10;95.70;;;;;;5042362;28;20105;-65
2022/11/14 07:50:47;;;;;;;7.10;4.80;;;34.10;96.70;;;;;;5043595;28;20037;-63
2022/11/14 07:53:14;;;;;;;14.90;4.90;;;34.20;96.40;;;;;;5046010;28;20025;-65
2022/11/14 07:55:40;;;;;;;8.05;3.63;;;34.30;95.80;;;;;;5041849;28;20033;-62
2022/11/14 07:58:07;;;;;;;9.88;4.13;;;34.20;95.70;;;;;;5045638;28;20474;-63
2022/11/14 08:00:34;;;;;;;10.95;4.95;;;34.10;96.70;;;;;;5042316;28;20079;-64
2022/11/14 08:03:00;;;;;;;19.98;8.57;;;33.90;96.30;;;;;;5043984;28;20025;-62
2022/11/14 08:05:26;;;;;;;18.15;5.75;;;33.80;96.50;;;;;;5054808;28;20477;-65
2022/11/14 08:07:53;;;;;;;11.88;6.22;;;33.90;95.90;;;;;;5048686;28;20082;-65
2022/11/14 08:10:20;;;;;;;8.77;5.53;;;33.80;96.60;;;;;;5048268;28;20051;-64
2022/11/14 08:12:46;;;;;;;12.10;6.93;;;33.80;96.10;;;;;;5049998;28;20024;-65
2022/11/14 08:15:13;;;;;;;22.02;13.23;;;33.70;96.30;;;;;;5038900;28;20034;-65
2022/11/14 08:17:40;;;;;;;18.02;9.73;;;33.70;96.30;;;;;;5051743;28;20029;-65
2022/11/14 08:20:08;;;;;;;9.35;4.18;;;33.60;95.80;;;;;;5054513;28;20393;-64
2022/11/14 08:22:35;;;;;;;12.70;6.53;;;33.70;96.10;;;;;;5055534;28;20090;-64
2022/11/14 08:25:01;;;;;;;15.18;5.43;;;33.80;96.50;;;;;;5055822;28;20032;-64
2022/11/14 08:27:28;;;;;;;19.90;6.25;;;33.70;95.20;;;;;;5056226;28;20021;-66
2022/11/14 08:29:54;;;;;;;11.95;6.15;;;33.60;96.20;;;;;;5055814;28;20029;-65
2022/11/14 08:32:21;;;;;;;18.80;6.50;;;33.60;95.90;;;;;;5055989;28;20025;-65
2022/11/14 08:34:47;;;;;;;19.20;7.85;;;33.70;95.70;;;;;;5056006;28;20389;-63
2022/11/14 08:37:14;;;;;;;22.10;5.03;;;33.70;95.30;;;;;;5052654;28;20553;-64
2022/11/14 08:39:40;;;;;;;16.70;6.57;;;33.60;94.60;;;;;;5067310;28;20065;-63
2022/11/14 08:42:07;;;;;;;17.45;7.25;;;33.50;95.00;;;;;;5074481;28;20099;-64
2022/11/14 08:44:33;;;;;;;13.90;6.18;;;33.60;95.30;;;;;;5055244;28;20489;-65
2022/11/14 08:47:01;;;;;;;12.43;4.07;;;33.70;96.20;;;;;;5055432;28;20025;-64
2022/11/14 08:49:27;;;;;;;10.52;6.03;;;33.80;95.50;;;;;;5052714;28;20033;-63
2022/11/14 08:51:54;;;;;;;10.85;4.63;;;33.70;95.60;;;;;;5046142;28;20013;-64
2022/11/14 08:54:20;;;;;;;8.27;5.03;;;33.60;95.60;;;;;;5043858;28;20020;-65
2022/11/14 08:56:48;;;;;;;12.15;3.97;;;33.60;95.20;;;;;;5038123;28;20029;-65
2022/11/14 08:59:14;;;;;;;16.65;4.95;;;33.50;95.00;;;;;;5035172;28;20067;-65
2022/11/14 09:01:41;;;;;;;11.20;4.00;;;33.50;95.40;;;;;;5035081;28;20398;-65
2022/11/14 09:04:07;;;;;;;10.93;3.58;;;33.40;93.80;;;;;;5037824;28;20021;-64
2022/11/14 09:06:34;;;;;;;10.50;4.78;;;33.30;93.20;;;;;;5043060;28;20036;-64
2022/11/14 09:09:01;;;;;;;13.57;5.32;;;33.30;94.50;;;;;;5035333;28;20017;-65
2022/11/14 09:11:27;;;;;;;14.63;6.32;;;33.30;95.00;;;;;;5038374;28;20033;-66
2022/11/14 09:13:54;;;;;;;12.27;4.68;;;33.30;95.30;;;;;;5051687;28;20025;-63
2022/11/14 09:16:20;;;;;;;10.35;5.28;;;33.40;96.10;;;;;;5034152;28;20548;-66
2022/11/14 09:18:47;;;;;;;16.00;5.65;;;33.30;95.80;;;;;;5046882;28;20108;-65
2022/11/14 09:21:13;;;;;;;28.88;11.55;;;33.10;96.20;;;;;;5052923;28;20380;-64
2022/11/14 09:23:40;;;;;;;28.23;12.43;;;33.10;96.00;;;;;;5056522;28;20033;-65
2022/11/14 09:26:08;;;;;;;20.98;8.35;;;33.00;96.30;;;;;;5050874;28;20112;-65
2022/11/14 09:28:35;;;;;;;16.08;9.02;;;33.10;96.80;;;;;;5073873;28;20060;-64
2022/11/14 09:31:05;;;;;;;18.80;9.30;;;33.10;96.70;;;;;;5074716;28;20026;-65
2022/11/14 09:33:32;;;;;;;15.38;7.38;;;33.00;97.20;;;;;;5061579;28;20025;-66
2022/11/14 09:36:01;;;;;;;17.42;6.45;;;33.00;97.30;;;;;;5050601;28;20041;-64
2022/11/14 09:38:28;;;;;;;23.75;7.00;;;32.90;97.40;;;;;;5043957;28;20471;-64
2022/11/14 09:40:58;;;;;;;16.98;6.78;;;32.90;98.00;;;;;;5054510;28;20381;-65
2022/11/14 09:43:27;;;;;;;14.95;6.13;;;32.90;98.00;;;;;;5054537;28;20051;-64
2022/11/14 09:45:53;;;;;;;21.50;6.68;;;33.00;98.10;;;;;;5039977;28;20108;-66
2022/11/14 09:48:26;;;;;;;19.55;7.40;;;33.00;98.20;;;;;;5034774;28;20108;-65
2022/11/14 09:51:02;;;;;;;27.67;7.95;;;33.00;98.20;;;;;;5041937;28;20026;-66
2022/11/14 09:53:34;;;;;;;32.55;6.97;;;33.00;98.10;;;;;;5044259;28;20363;-65
2022/11/14 09:56:00;;;;;;;26.27;6.97;;;32.90;98.40;;;;;;5054224;28;20064;-64
2022/11/14 09:58:27;;;;;;;19.85;6.88;;;32.80;98.80;;;;;;5053971;28;20079;-66
2022/11/14 10:01:20;;;;;;;26.55;7.63;;;32.80;99.00;;;;;;5048872;28;20107;-66
2022/11/14 10:03:53;;;;;;;20.50;8.40;;;32.70;98.90;;;;;;5035815;28;20040;-65
2022/11/14 10:06:21;;;;;;;19.35;8.40;;;32.70;99.00;;;;;;5053806;28;20028;-66
2022/11/14 10:08:49;;;;;;;27.23;9.05;;;32.60;99.50;;;;;;5053586;28;20025;-66
2022/11/14 10:11:20;;;;;;;15.85;7.07;;;32.50;99.50;;;;;;5053521;28;20040;-67
2022/11/14 10:13:53;;;;;;;29.45;7.45;;;32.50;99.80;;;;;;5053965;28;20108;-66
2022/11/14 10:16:25;;;;;;;21.52;9.20;;;32.40;99.80;;;;;;5053892;28;20031;-66
2022/11/14 10:18:55;;;;;;;30.77;10.43;;;32.30;99.90;;;;;;5053878;28;20049;-66
2022/11/14 10:21:32;;;;;;;41.17;16.55;;;32.40;99.90;;;;;;5041957;28;20025;-68
2022/11/14 10:24:08;;;;;;;27.85;10.52;;;32.40;99.90;;;;;;5035386;28;20025;-65
2022/11/14 10:26:44;;;;;;;26.83;12.55;;;32.30;99.90;;;;;;5034405;28;20026;-65
2022/11/14 10:29:16;;;;;;;29.98;11.90;;;32.20;99.90;;;;;;5033863;28;20108;-66
2022/11/14 10:32:03;;;;;;;30.77;14.80;;;32.10;99.90;;;;;;5033888;28;20108;-67
2022/11/14 10:34:47;;;;;;;41.80;20.52;;;32.10;99.90;;;;;;5027645;28;20084;-67
2022/11/14 10:37:17;;;;;;;35.15;15.63;;;32.20;99.90;;;;;;5033244;28;20037;-68
2022/11/14 10:39:46;;;;;;;47.63;17.40;;;32.10;99.90;;;;;;5037566;28;20026;-67
2022/11/14 10:42:28;;;;;;;61.50;21.58;;;32.10;99.90;;;;;;5033031;28;20037;-67
2022/11/14 10:45:02;;;;;;;50.22;18.50;;;32.10;99.90;;;;;;5033085;28;20079;-72
2022/11/14 10:47:38;;;;;;;73.97;22.90;;;32.10;99.90;;;;;;5039526;28;20499;-68
2022/11/14 10:50:16;;;;;;;81.07;28.35;;;32.00;99.90;;;;;;5041075;28;20037;-66
2022/11/14 10:52:44;;;;;;;58.08;23.30;;;32.00;99.90;;;;;;5048257;28;20024;-62
2022/11/14 10:55:16;;;;;;;53.70;21.35;;;31.80;99.90;;;;;;5054696;28;20049;-65
2022/11/14 10:57:45;;;;;;;53.90;18.85;;;31.70;99.90;;;;;;5071790;28;20029;-67
2022/11/14 11:00:17;;;;;;;36.42;16.83;;;31.70;99.90;;;;;;5073152;28;20103;-65
2022/11/14 11:02:51;;;;;;;36.38;15.20;;;31.60;99.90;;;;;;5073401;28;20031;-64
2022/11/14 11:05:20;;;;;;;45.03;18.23;;;31.50;99.90;;;;;;5073376;28;20064;-63
2022/11/14 11:12:53;;;;;;;55.65;22.95;;;31.30;99.90;;;;;;5032911;28;20109;-64
2022/11/14 11:15:23;;;;;;;56.95;18.10;;;31.20;99.90;;;;;;5035904;28;20440;-65
2022/11/14 11:17:56;;;;;;;49.08;19.05;;;31.20;99.90;;;;;;5047093;28;20096;-65
2022/11/14 11:20:26;;;;;;;50.10;18.92;;;31.20;99.90;;;;;;5048227;28;20021;-66
2022/11/14 11:22:58;;;;;;;37.83;14.98;;;31.20;99.90;;;;;;5037049;28;20477;-67
2022/11/14 11:25:26;;;;;;;42.90;16.77;;;31.30;99.90;;;;;;5036640;28;20078;-65
2022/11/14 11:28:15;;;;;;;44.25;18.17;;;31.30;99.90;;;;;;5052949;28;20474;-65
2022/11/14 11:30:56;;;;;;;33.13;15.32;;;31.20;99.90;;;;;;5043650;28;20064;-64
2022/11/14 11:33:25;;;;;;;35.50;14.48;;;31.10;99.90;;;;;;5043470;28;20082;-67
2022/11/14 11:35:59;;;;;;;25.38;12.85;;;31.10;99.90;;;;;;5041675;28;20034;-66
2022/11/14 11:38:28;;;;;;;27.17;13.75;;;31.00;99.90;;;;;;5039010;28;20057;-66
2022/11/14 11:41:01;;;;;;;39.45;16.88;;;30.80;99.90;;;;;;5052646;28;20029;-66
2022/11/14 11:43:31;;;;;;;39.13;16.92;;;30.80;99.90;;;;;;5052444;28;20471;-65
2022/11/14 11:46:03;;;;;;;23.85;10.88;;;30.70;99.90;;;;;;5054109;28;20056;-63
2022/11/14 11:48:36;;;;;;;;;;;30.70;99.90;;;;;;5050647;28;20021;-64
2022/11/14 11:51:04;;;;;;;35.60;13.23;;;30.70;99.90;;;;;;5042809;28;19913;-68
2022/11/14 11:53:37;;;;;;;39.05;14.07;;;30.70;99.90;;;;;;5037907;28;20057;-65
2022/11/14 11:56:08;;;;;;;38.20;16.15;;;30.70;99.90;;;;;;5036364;28;20125;-65
2022/11/14 11:58:54;;;;;;;28.77;11.25;;;30.60;99.90;;;;;;5036715;28;20032;-66
2022/11/14 12:01:20;;;;;;;35.22;13.70;;;30.60;99.90;;;;;;5036299;28;20039;-66
2022/11/14 12:03:50;;;;;;;28.38;12.25;;;30.60;99.90;;;;;;5036549;28;20061;-66
2022/11/14 12:06:24;;;;;;;28.15;13.25;;;30.60;99.90;;;;;;5036421;28;20033;-67
2022/11/14 12:08:51;;;;;;;44.13;18.20;;;30.70;99.90;;;;;;5036272;28;20060;-65
2022/11/14 12:11:20;;;;;;;55.13;23.27;;;30.70;99.90;;;;;;5036143;28;20535;-65
2022/11/14 12:13:49;;;;;;;30.75;15.57;;;30.70;99.90;;;;;;5036298;28;20025;-66
2022/11/14 12:16:16;;;;;;;33.50;14.57;;;30.70;99.90;;;;;;5036430;28;20787;-65
2022/11/14 12:18:46;;;;;;;41.85;13.20;;;30.60;99.90;;;;;;5036162;28;20104;-65
2022/11/14 12:21:18;;;;;;;69.03;21.05;;;30.60;99.90;;;;;;5036029;28;20492;-64
2022/11/14 12:23:50;;;;;;;122.45;26.58;;;30.50;99.90;;;;;;5035996;28;20072;-66
2022/11/14 12:26:19;;;;;;;111.75;22.75;;;30.50;99.90;;;;;;5046534;28;20025;-65
2022/11/14 12:28:57;;;;;;;86.82;20.20;;;30.60;99.90;;;;;;5046729;28;20037;-65
2022/11/14 12:31:27;;;;;;;59.00;18.02;;;30.60;99.90;;;;;;5055577;28;20029;-66
2022/11/14 12:34:01;;;;;;;60.83;16.80;;;30.60;99.90;;;;;;5055595;28;20021;-65
2022/11/14 12:36:31;;;;;;;60.50;14.68;;;30.60;99.90;;;;;;5055646;28;20442;-67
2022/11/14 12:38:59;;;;;;;63.83;14.85;;;30.70;99.90;;;;;;5055759;28;20481;-66
2022/11/14 12:41:40;;;;;;;55.83;22.23;;;30.70;99.90;;;;;;5052209;28;20032;-64
2022/11/14 12:44:12;;;;;;;43.88;16.08;;;30.70;99.90;;;;;;5036382;28;20501;-63
2022/11/14 12:47:01;;;;;;;52.97;17.90;;;30.70;99.90;;;;;;5048005;28;20037;-64
2022/11/14 12:49:48;;;;;;;24.50;10.82;;;30.60;99.90;;;;;;5019916;28;20036;-65